Time;durP1;ratioP1;P1;durP2;ratioP2;P2;SDS_P1;SDS_P2;PMS_P1;PMS_P2;Temp;Humidity;BMP_temperature;BMP_pressure;BME280_temperature;BME280_humidity;BME280_pressure;Samples;Min_cycle;Max_cycle;Signal;HPM_P1;HPM_P2
2023/11/19 00:01:14;;;;;;;9.00;5.50;;;;;;;0.48;62.87;101121.52;107716;1261;72473;-67
2023/11/19 00:03:41;;;;;;;8.70;5.10;;;;;;;0.48;63.04;101116.10;107672;1260;72734;-65
2023/11/19 00:06:11;;;;;;;9.30;6.10;;;;;;;0.48;62.92;101115.45;107769;1259;62864;-67
2023/11/19 00:08:38;;;;;;;8.40;5.40;;;;;;;0.49;62.69;101116.95;107685;1260;60503;-66
2023/11/19 00:11:06;;;;;;;8.30;5.40;;;;;;;0.49;62.89;101119.34;107690;1261;73222;-66
2023/11/19 00:13:34;;;;;;;7.80;5.00;;;;;;;0.49;62.73;101116.52;107867;1260;72968;-66
2023/11/19 00:16:04;;;;;;;7.80;4.90;;;;;;;0.49;62.66;101114.17;107633;1261;72685;-67
2023/11/19 00:18:32;;;;;;;8.70;4.90;;;;;;;0.48;62.67;101113.35;107803;1260;61038;-65
2023/11/19 00:21:02;;;;;;;6.80;4.60;;;;;;;0.50;62.79;101114.23;107780;1260;61257;-65
2023/11/19 00:23:29;;;;;;;8.70;5.40;;;;;;;0.50;62.62;101112.91;107817;1260;73574;-66
2023/11/19 00:25:57;;;;;;;8.90;5.30;;;;;;;0.48;62.58;101109.27;107651;1260;73386;-67
2023/11/19 00:28:24;;;;;;;10.10;5.60;;;;;;;0.47;62.69;101108.33;107631;1261;70572;-68
2023/11/19 00:30:53;;;;;;;8.10;5.30;;;;;;;0.47;62.51;101107.80;107597;1260;61235;-67
2023/11/19 00:33:20;;;;;;;7.90;5.10;;;;;;;0.48;62.48;101110.89;107799;1260;62076;-66
2023/11/19 00:35:48;;;;;;;10.30;5.70;;;;;;;0.49;62.68;101109.33;107840;1260;73801;-67
2023/11/19 00:38:16;;;;;;;8.40;4.50;;;;;;;0.50;62.53;101110.89;107852;1260;72986;-67
2023/11/19 00:40:44;;;;;;;8.00;5.20;;;;;;;0.49;62.59;101107.06;107666;1260;72689;-66
2023/11/19 00:43:11;;;;;;;7.60;4.90;;;;;;;0.49;62.59;101109.69;107627;1260;61473;-67
2023/11/19 00:45:39;;;;;;;8.90;5.40;;;;;;;0.49;62.75;101108.88;107760;1260;61105;-65
2023/11/19 00:48:07;;;;;;;7.40;4.40;;;;;;;0.49;62.78;101110.77;107821;1260;74013;-66
2023/11/19 00:50:35;;;;;;;6.60;4.80;;;;;;;0.48;62.90;101108.63;107822;1261;71600;-66
2023/11/19 00:53:05;;;;;;;7.30;4.70;;;;;;;0.48;62.98;101108.95;107808;1260;71414;-66
2023/11/19 00:55:33;;;;;;;9.20;5.30;;;;;;;0.48;63.15;101109.76;107679;1260;61205;-66
2023/11/19 00:58:03;;;;;;;8.30;5.30;;;;;;;0.47;63.19;101111.71;107695;1260;61051;-66
2023/11/19 01:00:32;;;;;;;7.50;5.00;;;;;;;0.44;62.98;101105.70;107695;1261;74721;-68
2023/11/19 01:03:00;;;;;;;7.70;5.00;;;;;;;0.42;63.21;101103.83;107849;1259;73111;-66
2023/11/19 01:05:28;;;;;;;7.80;4.80;;;;;;;0.41;63.14;101097.44;107532;1259;72588;-66
2023/11/19 01:07:56;;;;;;;7.70;5.00;;;;;;;0.42;63.20;101095.27;107539;1259;61292;-66
2023/11/19 01:10:25;;;;;;;7.70;4.50;;;;;;;0.42;63.34;101097.66;107803;1259;61098;-66
2023/11/19 01:12:54;;;;;;;7.90;4.60;;;;;;;0.42;63.19;101097.04;107834;1260;76883;-66
2023/11/19 01:15:22;;;;;;;7.70;4.60;;;;;;;0.41;63.17;101101.80;107650;1260;71695;-66
2023/11/19 01:17:50;;;;;;;6.90;4.30;;;;;;;0.39;63.18;101092.06;107669;1260;71392;-66
2023/11/19 01:20:20;;;;;;;7.40;4.50;;;;;;;0.39;63.26;101085.23;107656;1259;61328;-66
2023/11/19 01:22:49;;;;;;;7.80;4.80;;;;;;;0.40;63.38;101082.41;107837;1260;61545;-66
2023/11/19 01:25:17;;;;;;;7.90;4.60;;;;;;;0.40;63.16;101082.02;107843;1261;72373;-68
2023/11/19 01:27:45;;;;;;;8.60;5.00;;;;;;;0.41;63.31;101079.27;107597;1259;71479;-67
2023/11/19 01:30:13;;;;;;;9.10;4.90;;;;;;;0.41;63.34;101079.80;107805;1261;72665;-68
2023/11/19 01:32:41;;;;;;;7.70;4.70;;;;;;;0.39;63.34;101077.90;107727;1260;61194;-66
2023/11/19 01:35:08;;;;;;;7.70;4.30;;;;;;;0.38;63.43;101074.38;107819;1259;61264;-65
2023/11/19 01:37:36;;;;;;;7.20;4.40;;;;;;;0.37;63.33;101071.50;107679;1260;74707;-66
2023/11/19 01:40:06;;;;;;;7.90;4.70;;;;;;;0.37;63.36;101066.44;107700;1259;71763;-67
2023/11/19 01:42:38;;;;;;;7.80;4.30;;;;;;;0.39;63.27;101066.18;107639;1260;73907;-66
2023/11/19 01:45:08;;;;;;;6.50;4.40;;;;;;;0.39;63.32;101063.92;107823;1259;60170;-65
2023/11/19 01:47:36;;;;;;;10.10;4.70;;;;;;;0.40;63.60;101060.64;107617;1260;325624;-65
2023/11/19 01:50:06;;;;;;;9.00;5.30;;;;;;;0.40;63.66;101061.27;107850;1259;72921;-65
2023/11/19 01:52:36;;;;;;;6.60;4.50;;;;;;;0.40;63.53;101064.14;107674;1259;72510;-65
2023/11/19 01:55:04;;;;;;;8.00;5.30;;;;;;;0.37;63.37;101066.20;107636;1260;71396;-67
2023/11/19 01:57:32;;;;;;;7.20;4.60;;;;;;;0.36;63.34;101070.27;107711;1259;59921;-67
2023/11/19 01:59:59;;;;;;;9.00;5.70;;;;;;;0.34;63.33;101066.79;107830;1259;60008;-67
2023/11/19 02:02:27;;;;;;;9.50;5.00;;;;;;;0.34;63.48;101058.91;107612;1259;76983;-67
2023/11/19 02:04:55;;;;;;;8.10;4.70;;;;;;;0.34;63.62;101058.51;107614;1259;72776;-67
2023/11/19 02:07:23;;;;;;;7.80;5.10;;;;;;;0.34;63.66;101056.96;107587;1259;71047;-66
2023/11/19 02:09:51;;;;;;;7.50;4.70;;;;;;;0.33;63.45;101052.73;107570;1261;60372;-66
2023/11/19 02:12:20;;;;;;;7.20;4.90;;;;;;;0.31;63.54;101054.13;107588;1260;61168;-66
2023/11/19 02:14:48;;;;;;;7.60;4.70;;;;;;;0.30;63.68;101048.36;107607;1260;73681;-65
2023/11/19 02:17:26;;;;;;;8.00;5.10;;;;;;;0.28;63.62;101050.98;107520;1264;72493;-67
2023/11/19 02:19:54;;;;;;;6.30;4.20;;;;;;;0.28;63.80;101055.05;107596;1259;72682;-66
2023/11/19 02:22:22;;;;;;;8.80;4.90;;;;;;;0.27;63.72;101058.48;107650;1260;61170;-69
2023/11/19 02:24:51;;;;;;;7.90;4.30;;;;;;;0.27;63.72;101062.91;107595;1260;61368;-67
2023/11/19 02:27:39;;;;;;;7.90;5.30;;;;;;;0.25;63.65;101062.95;107633;1259;73484;-66
2023/11/19 02:30:08;;;;;;;8.90;5.20;;;;;;;0.24;63.72;101062.99;107551;1258;71460;-66
2023/11/19 02:32:38;;;;;;;8.50;5.20;;;;;;;0.25;63.79;101063.57;107624;1261;71384;-67
2023/11/19 02:35:07;;;;;;;7.00;4.40;;;;;;;0.25;63.75;101065.86;107637;1260;61933;-66
2023/11/19 02:37:35;;;;;;;8.10;4.90;;;;;;;0.24;63.79;101065.26;107647;1259;60580;-66
2023/11/19 02:40:05;;;;;;;9.00;4.90;;;;;;;0.25;63.70;101059.20;107640;1260;73396;-65
2023/11/19 02:42:33;;;;;;;8.50;5.20;;;;;;;0.24;63.70;101052.16;107826;1260;72705;-67
2023/11/19 02:45:01;;;;;;;6.90;4.70;;;;;;;0.23;63.62;101054.49;107862;1259;71164;-66
2023/11/19 02:47:30;;;;;;;7.90;4.60;;;;;;;0.22;63.63;101055.31;107701;1258;61157;-66
2023/11/19 02:49:59;;;;;;;7.70;5.00;;;;;;;0.21;63.55;101050.08;107874;1259;61269;-67
2023/11/19 02:52:28;;;;;;;8.90;5.50;;;;;;;0.20;63.85;101047.70;107697;1259;74657;-66
2023/11/19 02:54:56;;;;;;;7.60;4.90;;;;;;;0.19;63.92;101043.09;107674;1259;72015;-66
2023/11/19 02:57:24;;;;;;;7.90;5.30;;;;;;;0.18;63.70;101041.59;107655;1261;72505;-66
2023/11/19 02:59:54;;;;;;;8.00;5.30;;;;;;;0.17;63.87;101036.65;107737;1260;60975;-66
2023/11/19 03:02:22;;;;;;;9.60;5.00;;;;;;;0.16;63.98;101028.77;107705;1259;61121;-66
2023/11/19 03:04:50;;;;;;;7.60;5.00;;;;;;;0.14;63.78;101026.30;107591;1259;74716;-66
2023/11/19 03:07:17;;;;;;;7.70;4.70;;;;;;;0.14;64.07;101024.89;107505;1260;73526;-65
2023/11/19 03:09:45;;;;;;;7.60;5.10;;;;;;;0.15;64.15;101023.80;107529;1259;72785;-65
2023/11/19 03:12:13;;;;;;;8.50;5.30;;;;;;;0.16;64.13;101014.34;107640;1259;61260;-66
2023/11/19 03:14:40;;;;;;;9.60;5.00;;;;;;;0.17;64.08;101007.75;107848;1259;61131;-66
2023/11/19 03:17:09;;;;;;;8.60;5.40;;;;;;;0.18;64.01;101001.63;107867;1260;74778;-66
2023/11/19 03:19:37;;;;;;;7.40;4.70;;;;;;;0.19;64.10;101001.91;107850;1258;72903;-66
2023/11/19 03:22:05;;;;;;;7.10;4.50;;;;;;;0.20;64.13;101001.86;107611;1259;71620;-65
2023/11/19 03:24:33;;;;;;;8.20;5.20;;;;;;;0.20;64.07;101003.73;107663;1259;61161;-66
2023/11/19 03:27:07;;;;;;;7.30;4.50;;;;;;;0.19;64.12;101011.00;107643;1259;61263;-66
2023/11/19 03:29:36;;;;;;;7.40;4.50;;;;;;;0.18;63.93;101011.44;107668;1258;74679;-65
2023/11/19 03:32:04;;;;;;;7.90;4.60;;;;;;;0.16;63.98;101013.08;107501;1265;72945;-66
2023/11/19 03:34:31;;;;;;;8.10;4.70;;;;;;;0.14;64.31;101008.98;107558;1260;72720;-67
2023/11/19 03:36:59;;;;;;;8.10;5.20;;;;;;;0.13;64.20;101012.06;107778;1259;61173;-66
2023/11/19 03:39:27;;;;;;;7.30;4.40;;;;;;;0.13;64.09;101011.70;107629;1259;61143;-67
2023/11/19 03:41:54;;;;;;;7.00;4.60;;;;;;;0.14;64.22;101006.02;107404;1260;74672;-65
2023/11/19 03:44:22;;;;;;;7.40;4.80;;;;;;;0.14;64.21;100999.94;107619;1259;72995;-67
2023/11/19 03:46:49;;;;;;;8.80;4.80;;;;;;;0.14;64.15;101002.54;107555;1265;72775;-65
2023/11/19 03:49:17;;;;;;;7.50;4.70;;;;;;;0.19;64.08;101003.49;107687;1259;61260;-66
2023/11/19 03:51:45;;;;;;;7.40;4.60;;;;;;;0.21;64.36;101000.30;107828;1259;61111;-66
2023/11/19 03:54:12;;;;;;;8.10;5.10;;;;;;;0.22;64.31;100996.14;107714;1259;75550;-67
2023/11/19 03:56:40;;;;;;;8.50;5.00;;;;;;;0.21;64.20;100997.10;107692;1259;71766;-69
2023/11/19 03:59:09;;;;;;;6.30;4.30;;;;;;;0.20;64.24;100996.52;107601;1260;71608;-66
2023/11/19 04:01:37;;;;;;;8.00;5.10;;;;;;;0.19;64.27;100996.59;107715;1259;61225;-67
2023/11/19 04:04:06;;;;;;;6.70;4.70;;;;;;;0.19;64.07;100993.39;107647;1259;61113;-67
2023/11/19 04:06:34;;;;;;;7.60;5.00;;;;;;;0.17;64.06;100985.13;107733;1262;75107;-66
2023/11/19 04:09:02;;;;;;;8.50;5.00;;;;;;;0.18;64.05;100980.98;107639;1259;72878;-67
2023/11/19 04:11:29;;;;;;;8.30;5.00;;;;;;;0.20;64.15;100972.56;107639;1259;72670;-66
2023/11/19 04:13:57;;;;;;;8.20;5.20;;;;;;;0.19;64.34;100965.98;107823;1260;61187;-67
2023/11/19 04:16:30;;;;;;;9.10;5.50;;;;;;;0.17;64.12;100960.27;107729;1259;61387;-67
2023/11/19 04:18:58;;;;;;;8.90;4.90;;;;;;;0.16;64.12;100955.55;107772;1259;73643;-66
2023/11/19 04:21:26;;;;;;;8.10;5.40;;;;;;;0.14;64.25;100951.94;107607;1259;71493;-66
2023/11/19 04:23:54;;;;;;;7.20;4.90;;;;;;;0.12;64.04;100955.48;107675;1259;72787;-66
2023/11/19 04:26:22;;;;;;;6.90;4.70;;;;;;;0.09;63.88;100954.40;107591;1260;61327;-66
2023/11/19 04:28:49;;;;;;;7.40;5.00;;;;;;;0.07;63.89;100958.83;107641;1259;60029;-67
2023/11/19 04:31:18;;;;;;;8.40;4.70;;;;;;;0.07;64.01;100955.51;107770;1258;74722;-66
2023/11/19 04:33:47;;;;;;;7.70;4.80;;;;;;;0.07;64.04;100953.44;107876;1259;74151;-68
2023/11/19 04:36:19;;;;;;;8.10;5.10;;;;;;;0.08;64.12;100956.77;107641;1263;72505;-66
2023/11/19 04:38:46;;;;;;;;;;;;;;;0.11;64.01;100958.08;107644;1259;61200;-66
2023/11/19 04:41:14;;;;;;;8.30;5.20;;;;;;;0.12;64.09;100960.23;107619;1258;61102;-66
2023/11/19 04:43:42;;;;;;;7.30;5.00;;;;;;;0.14;64.11;100961.90;107664;1259;73361;-66
2023/11/19 04:46:09;;;;;;;7.70;4.90;;;;;;;0.15;64.13;100973.69;107636;1259;72739;-66
2023/11/19 04:48:37;;;;;;;6.90;5.20;;;;;;;0.15;64.03;100978.02;107639;1259;71474;-66
2023/11/19 04:51:11;;;;;;;8.90;4.90;;;;;;;0.15;63.91;100974.70;107618;1259;61148;-67
2023/11/19 04:53:39;;;;;;;7.20;4.90;;;;;;;0.14;64.03;100977.64;107701;1258;61110;-65
2023/11/19 04:56:10;;;;;;;8.40;5.10;;;;;;;0.13;63.84;100978.95;107850;1259;73467;-67
2023/11/19 04:58:38;;;;;;;7.80;4.70;;;;;;;0.14;63.83;100977.84;107702;1260;71690;-66
2023/11/19 05:01:06;;;;;;;7.50;4.90;;;;;;;0.14;63.73;100978.73;107813;1259;72795;-67
2023/11/19 05:03:33;;;;;;;8.70;5.10;;;;;;;0.13;63.38;100974.30;107647;1259;61122;-64
2023/11/19 05:06:01;;;;;;;7.40;5.00;;;;;;;0.13;63.33;100978.41;107791;1259;59106;-67
2023/11/19 05:08:29;;;;;;;7.20;4.60;;;;;;;0.15;63.30;100982.66;107833;1258;74599;-67
2023/11/19 05:10:57;;;;;;;7.60;4.70;;;;;;;0.15;62.99;100984.36;107710;1259;72766;-68
2023/11/19 05:13:25;;;;;;;6.70;3.80;;;;;;;0.15;62.98;100982.09;107807;1259;72542;-65
2023/11/19 05:15:52;;;;;;;6.20;4.20;;;;;;;0.13;62.65;100977.18;107828;1259;60854;-65
2023/11/19 05:18:20;;;;;;;7.20;4.10;;;;;;;0.12;62.15;100969.23;107738;1258;60088;-66
2023/11/19 05:20:47;;;;;;;6.40;3.90;;;;;;;0.11;62.14;100960.83;107822;1259;74069;-66
2023/11/19 05:23:15;;;;;;;6.50;4.00;;;;;;;0.12;61.85;100960.23;107824;1259;71408;-68
2023/11/19 05:25:47;;;;;;;6.20;4.20;;;;;;;0.11;61.26;100959.98;107687;1259;72450;-66
2023/11/19 05:28:15;;;;;;;6.60;4.20;;;;;;;0.08;60.86;100960.77;107800;1258;61227;-66
2023/11/19 05:30:42;;;;;;;6.30;4.30;;;;;;;0.07;60.88;100957.93;107676;1258;61264;-66
2023/11/19 05:33:10;;;;;;;7.60;4.60;;;;;;;0.08;60.94;100951.92;107692;1258;74643;-67
2023/11/19 05:35:38;;;;;;;7.20;4.40;;;;;;;0.10;60.68;100956.95;107703;1259;71635;-67
2023/11/19 05:38:06;;;;;;;6.40;4.20;;;;;;;0.10;60.76;100962.67;107886;1258;71633;-68
2023/11/19 05:40:33;;;;;;;6.50;4.00;;;;;;;0.10;60.41;100957.14;107726;1259;61295;-70
2023/11/19 05:43:01;;;;;;;6.90;4.30;;;;;;;0.09;59.99;100959.68;107664;1259;61359;-66
2023/11/19 05:45:29;;;;;;;7.00;4.20;;;;;;;0.08;59.97;100957.50;107674;1259;74723;-66
2023/11/19 05:47:56;;;;;;;5.40;3.30;;;;;;;0.07;59.56;100958.56;107744;1259;71405;-66
2023/11/19 05:50:24;;;;;;;6.10;3.80;;;;;;;0.05;59.57;100962.91;107662;1259;71462;-69
2023/11/19 05:52:53;;;;;;;5.60;3.80;;;;;;;0.04;59.24;100962.16;107691;1259;61237;-65
2023/11/19 05:55:23;;;;;;;5.60;3.70;;;;;;;0.04;58.98;100958.19;107847;1259;61286;-66
2023/11/19 05:57:51;;;;;;;5.10;3.40;;;;;;;0.04;59.04;100957.92;107628;1259;73772;-66
2023/11/19 06:00:19;;;;;;;5.50;3.50;;;;;;;0.04;58.96;100957.23;107706;1259;72079;-67
2023/11/19 06:02:47;;;;;;;6.10;4.10;;;;;;;0.05;59.01;100954.94;107677;1259;72962;-66
2023/11/19 06:05:15;;;;;;;5.60;3.60;;;;;;;0.07;59.02;100950.61;107566;1264;61151;-66
2023/11/19 06:07:42;;;;;;;6.40;3.90;;;;;;;0.09;58.92;100943.54;107724;1258;61048;-68
2023/11/19 06:10:11;;;;;;;6.20;4.00;;;;;;;0.10;58.74;100941.52;107788;1260;74629;-67
2023/11/19 06:12:40;;;;;;;6.60;4.30;;;;;;;0.10;58.75;100940.66;107919;1259;72633;-66
2023/11/19 06:15:09;;;;;;;6.50;4.00;;;;;;;0.10;58.43;100944.18;107766;1259;73331;-66
2023/11/19 06:17:38;;;;;;;5.10;3.40;;;;;;;0.11;58.47;100941.79;107815;1259;59891;-67
2023/11/19 06:20:07;;;;;;;9.20;4.90;;;;;;;0.11;58.30;100942.80;107965;1258;59413;-66
2023/11/19 06:22:35;;;;;;;8.60;4.60;;;;;;;0.11;58.37;100939.77;108333;1259;74644;-68
2023/11/19 06:25:07;;;;;;;8.10;4.90;;;;;;;0.14;58.33;100932.78;107680;1260;73980;-65
2023/11/19 06:27:35;;;;;;;6.90;4.40;;;;;;;0.18;58.55;100927.29;107664;1259;71441;-65
2023/11/19 06:30:03;;;;;;;7.50;4.80;;;;;;;0.20;58.52;100925.30;107792;1259;61312;-67
2023/11/19 06:32:32;;;;;;;6.80;4.20;;;;;;;0.18;58.23;100915.63;107564;1260;61092;-66
2023/11/19 06:35:00;;;;;;;5.80;3.60;;;;;;;0.18;58.02;100909.40;107671;1259;74695;-68
2023/11/19 06:37:27;;;;;;;7.70;4.60;;;;;;;0.17;57.72;100910.02;107679;1259;71448;-67
2023/11/19 06:39:56;;;;;;;7.20;4.40;;;;;;;0.19;57.68;100909.98;107778;1258;72650;-66
2023/11/19 06:42:24;;;;;;;6.90;4.20;;;;;;;0.19;57.81;100909.30;107923;1260;61220;-65
2023/11/19 06:44:52;;;;;;;5.70;2.90;;;;;;;0.20;57.74;100911.73;107836;1259;61196;-65
2023/11/19 06:47:20;;;;;;;4.40;2.70;;;;;;;0.22;57.18;100907.55;107771;1259;73514;-66
2023/11/19 06:49:47;;;;;;;5.00;3.20;;;;;;;0.22;56.79;100908.16;107663;1258;72881;-67
2023/11/19 06:52:16;;;;;;;6.00;3.90;;;;;;;0.24;57.07;100905.92;107717;1259;74907;-65
2023/11/19 06:54:45;;;;;;;5.50;3.40;;;;;;;0.29;57.00;100902.39;107671;1258;61165;-67
2023/11/19 06:57:13;;;;;;;5.90;3.80;;;;;;;0.32;56.92;100900.26;107694;1258;61254;-66
2023/11/19 06:59:42;;;;;;;5.10;3.50;;;;;;;0.35;56.81;100900.79;107753;1259;73364;-66
2023/11/19 07:02:10;;;;;;;5.30;3.80;;;;;;;0.37;56.71;100901.23;107687;1258;72729;-66
2023/11/19 07:04:38;;;;;;;6.20;3.50;;;;;;;0.38;56.39;100898.40;107712;1259;72762;-66
2023/11/19 07:07:06;;;;;;;6.10;3.50;;;;;;;0.40;56.24;100900.01;107651;1258;61229;-66
2023/11/19 07:09:34;;;;;;;5.30;3.70;;;;;;;0.40;56.13;100897.90;107581;1259;61150;-66
2023/11/19 07:12:04;;;;;;;5.00;3.30;;;;;;;0.41;55.83;100895.30;107577;1258;75189;-66
2023/11/19 07:14:32;;;;;;;5.30;3.40;;;;;;;0.41;55.64;100895.52;107694;1258;72940;-66
2023/11/19 07:17:00;;;;;;;6.70;3.90;;;;;;;0.40;55.71;100906.10;107706;1258;72810;-67
2023/11/19 07:19:27;;;;;;;6.60;3.90;;;;;;;0.41;55.87;100909.36;107716;1259;61257;-66
2023/11/19 07:21:56;;;;;;;5.80;3.20;;;;;;;0.42;55.76;100901.26;107769;1259;61263;-64
2023/11/19 07:24:24;;;;;;;5.40;3.50;;;;;;;0.40;55.48;100899.27;107754;1259;74634;-67
2023/11/19 07:26:52;;;;;;;5.80;3.60;;;;;;;0.39;55.61;100899.14;107854;1262;70592;-67
2023/11/19 07:29:21;;;;;;;6.10;3.70;;;;;;;0.47;55.70;100896.05;107846;1259;72564;-67
2023/11/19 07:31:52;;;;;;;6.50;4.00;;;;;;;0.56;55.96;100897.46;107719;1259;61264;-67
2023/11/19 07:34:21;;;;;;;6.20;3.30;;;;;;;0.62;55.91;100893.67;107711;1258;59011;-66
2023/11/19 07:36:48;;;;;;;5.50;3.00;;;;;;;0.62;55.31;100890.85;107691;1259;73938;-67
2023/11/19 07:39:16;;;;;;;5.20;3.20;;;;;;;0.61;55.26;100887.86;107870;1259;72757;-66
2023/11/19 07:41:44;;;;;;;6.10;3.50;;;;;;;0.60;55.63;100885.27;107829;1258;71753;-66
2023/11/19 07:44:11;;;;;;;6.30;3.30;;;;;;;0.66;55.64;100884.05;107835;1259;61160;-66
2023/11/19 07:46:39;;;;;;;6.10;3.40;;;;;;;0.73;55.60;100886.64;107807;1259;60070;-67
2023/11/19 07:49:06;;;;;;;6.70;3.40;;;;;;;0.79;55.61;100885.00;107752;1259;74697;-65
2023/11/19 07:51:34;;;;;;;5.00;3.10;;;;;;;0.84;55.49;100884.60;107860;1259;73915;-66
2023/11/19 07:54:04;;;;;;;6.80;3.70;;;;;;;0.83;55.30;100879.11;107760;1259;72869;-66
2023/11/19 07:56:34;;;;;;;6.50;3.70;;;;;;;0.81;55.23;100872.98;107810;1259;61311;-66
2023/11/19 07:59:02;;;;;;;5.90;3.40;;;;;;;0.80;55.22;100879.48;107734;1259;61146;-65
2023/11/19 08:01:30;;;;;;;5.30;3.30;;;;;;;0.77;54.84;100883.65;107741;1260;73637;-66
2023/11/19 08:03:58;;;;;;;6.60;4.00;;;;;;;0.76;55.06;100889.35;107722;1259;73362;-66
2023/11/19 08:06:26;;;;;;;6.30;3.90;;;;;;;0.82;55.32;100886.77;107802;1258;73161;-65
2023/11/19 08:08:54;;;;;;;6.90;3.80;;;;;;;0.89;55.41;100880.63;107730;1264;59350;-65
2023/11/19 08:11:22;;;;;;;6.70;3.90;;;;;;;0.96;55.55;100876.05;107746;1259;61119;-65
2023/11/19 08:13:49;;;;;;;6.70;3.90;;;;;;;1.02;55.01;100870.85;107682;1259;74901;-65
2023/11/19 08:16:17;;;;;;;6.00;3.60;;;;;;;0.99;54.71;100864.33;107816;1259;72755;-66
2023/11/19 08:18:45;;;;;;;5.10;3.40;;;;;;;0.99;54.62;100859.46;107820;1259;71266;-65
2023/11/19 08:21:13;;;;;;;6.40;3.70;;;;;;;0.96;54.22;100863.11;107683;1258;61161;-66
2023/11/19 08:23:41;;;;;;;6.40;3.70;;;;;;;0.94;54.52;100854.80;107831;1259;60203;-65
2023/11/19 08:26:08;;;;;;;5.60;3.70;;;;;;;0.94;54.38;100845.85;107826;1258;73497;-70
2023/11/19 08:28:37;;;;;;;5.90;4.10;;;;;;;0.97;54.73;100845.33;107681;1259;72775;-66
2023/11/19 08:31:05;;;;;;;6.50;3.40;;;;;;;1.04;54.75;100847.05;107525;1259;72771;-66
2023/11/19 08:33:32;;;;;;;5.00;3.10;;;;;;;1.09;54.40;100846.09;107752;1259;61020;-66
2023/11/19 08:36:00;;;;;;;6.00;3.60;;;;;;;1.08;54.31;100846.55;107650;1259;61274;-65
2023/11/19 08:38:28;;;;;;;5.50;2.90;;;;;;;1.10;54.21;100843.02;107761;1258;74656;-67
2023/11/19 08:41:00;;;;;;;8.80;5.20;;;;;;;1.13;54.20;100835.59;107654;1259;74012;-66
2023/11/19 08:43:28;;;;;;;7.90;5.10;;;;;;;1.18;54.37;100826.98;107679;1259;72933;-66
2023/11/19 08:45:55;;;;;;;6.30;4.10;;;;;;;1.24;54.51;100822.38;107809;1259;61434;-66
2023/11/19 08:48:23;;;;;;;7.00;3.90;;;;;;;1.27;54.48;100824.02;107747;1259;60406;-67
2023/11/19 08:50:51;;;;;;;6.30;4.10;;;;;;;1.28;54.51;100824.80;107926;1259;76920;-67
2023/11/19 08:53:18;;;;;;;5.80;3.90;;;;;;;1.28;54.60;100821.35;107795;1259;71584;-66
2023/11/19 08:55:46;;;;;;;6.60;4.40;;;;;;;1.29;54.46;100817.41;107625;1263;70594;-68
2023/11/19 08:58:14;;;;;;;5.10;3.50;;;;;;;1.26;54.46;100814.35;107731;1258;61219;-68
2023/11/19 09:00:41;;;;;;;5.30;3.30;;;;;;;1.16;54.49;100803.81;107672;1258;60086;-65
2023/11/19 09:03:09;;;;;;;4.80;3.40;;;;;;;1.07;54.46;100806.31;107688;1259;73312;-67
2023/11/19 09:05:38;;;;;;;5.00;3.60;;;;;;;1.04;54.94;100808.88;107727;1259;70586;-67
2023/11/19 09:08:06;;;;;;;6.30;4.20;;;;;;;1.08;54.74;100813.78;107682;1259;71285;-66
2023/11/19 09:10:34;;;;;;;9.10;4.80;;;;;;;1.15;54.72;100815.42;107623;1259;61414;-66
2023/11/19 09:13:02;;;;;;;7.40;4.30;;;;;;;1.18;54.94;100811.27;107766;1258;61145;-66
2023/11/19 09:15:29;;;;;;;6.30;4.10;;;;;;;1.22;54.67;100807.54;107718;1259;73466;-65
2023/11/19 09:17:57;;;;;;;6.60;4.60;;;;;;;1.22;54.69;100798.07;107754;1259;71613;-66
2023/11/19 09:20:25;;;;;;;7.60;4.90;;;;;;;1.24;54.61;100790.77;107709;1258;72776;-68
2023/11/19 09:22:53;;;;;;;6.30;4.30;;;;;;;1.28;54.52;100788.89;107658;1258;61107;-67
2023/11/19 09:25:21;;;;;;;7.80;4.60;;;;;;;1.29;54.27;100784.90;107658;1258;61149;-66
2023/11/19 09:27:48;;;;;;;7.80;4.90;;;;;;;1.29;54.31;100786.80;107540;1259;74650;-66
2023/11/19 09:30:16;;;;;;;5.70;4.00;;;;;;;1.28;54.25;100786.46;107670;1259;72844;-68
2023/11/19 09:32:44;;;;;;;8.00;4.40;;;;;;;1.27;54.30;100779.77;107654;1258;72579;-65
2023/11/19 09:35:14;;;;;;;6.70;4.20;;;;;;;1.27;54.37;100784.84;107780;1259;61138;-67
2023/11/19 09:37:43;;;;;;;6.60;3.70;;;;;;;1.26;54.37;100787.91;107682;1258;61149;-67
2023/11/19 09:40:11;;;;;;;5.90;3.80;;;;;;;1.25;54.57;100787.53;107755;1259;74777;-67
2023/11/19 09:42:48;;;;;;;6.90;3.80;;;;;;;1.21;54.43;100777.55;107635;1259;71207;-67
2023/11/19 09:45:16;;;;;;;6.50;4.60;;;;;;;1.22;54.60;100783.30;107585;1259;71199;-67
2023/11/19 09:47:46;;;;;;;7.00;4.50;;;;;;;1.29;54.95;100790.16;107667;1259;60487;-67
2023/11/19 09:50:18;;;;;;;7.70;4.50;;;;;;;1.33;54.72;100791.80;107670;1258;61304;-67
2023/11/19 09:52:47;;;;;;;9.50;5.00;;;;;;;1.35;54.39;100792.41;107785;1259;75565;-69
2023/11/19 09:55:14;;;;;;;8.00;5.10;;;;;;;1.34;54.32;100789.48;107694;1259;71379;-67
2023/11/19 09:57:43;;;;;;;8.50;5.60;;;;;;;1.34;54.39;100788.17;107751;1259;71832;-68
2023/11/19 10:00:15;;;;;;;8.60;5.10;;;;;;;1.32;54.59;100785.90;107873;1259;59549;-67
2023/11/19 10:02:46;;;;;;;7.10;4.70;;;;;;;1.34;54.69;100783.33;107879;1259;61932;-66
2023/11/19 10:05:14;;;;;;;8.70;4.50;;;;;;;1.38;54.39;100779.35;107795;1259;74682;-67
2023/11/19 10:07:44;;;;;;;7.10;4.50;;;;;;;1.37;54.31;100778.27;107672;1259;72938;-67
2023/11/19 10:10:15;;;;;;;7.20;4.30;;;;;;;1.38;54.38;100781.52;107760;1259;72705;-67
2023/11/19 10:12:42;;;;;;;7.30;4.50;;;;;;;1.42;54.55;100780.98;107816;1259;61229;-69
2023/11/19 10:15:24;;;;;;;7.20;4.60;;;;;;;1.47;54.36;100786.93;107708;1258;61119;-67
2023/11/19 10:17:56;;;;;;;5.70;3.80;;;;;;;1.48;54.10;100791.84;107726;1259;73827;-67
2023/11/19 10:20:24;;;;;;;8.20;5.00;;;;;;;1.45;54.10;100787.01;107702;1259;73580;-66
2023/11/19 10:22:54;;;;;;;6.50;4.00;;;;;;;1.40;54.17;100785.15;107661;1258;71541;-67
2023/11/19 10:25:27;;;;;;;7.10;3.70;;;;;;;1.37;53.82;100782.45;107725;1258;61230;-66
2023/11/19 10:27:56;;;;;;;6.60;3.60;;;;;;;1.36;53.86;100782.80;107676;1259;60021;-67
2023/11/19 10:30:28;;;;;;;7.00;3.70;;;;;;;1.34;54.01;100772.99;107749;1262;73521;-66
2023/11/19 10:33:06;;;;;;;6.60;3.90;;;;;;;1.35;54.02;100776.57;107717;1259;71837;-66
2023/11/19 10:35:36;;;;;;;6.70;3.90;;;;;;;1.32;54.01;100773.79;107802;1259;71360;-69
2023/11/19 10:38:16;;;;;;;6.40;4.00;;;;;;;1.31;54.04;100764.14;107737;1260;61342;-65
2023/11/19 10:40:44;;;;;;;8.70;4.30;;;;;;;1.32;54.27;100763.50;107787;1259;61125;-67
2023/11/19 10:43:12;;;;;;;7.50;4.80;;;;;;;1.31;54.50;100767.06;107806;1259;74626;-68
2023/11/19 10:45:40;;;;;;;7.30;5.10;;;;;;;1.29;54.47;100768.46;107764;1259;73163;-67
2023/11/19 10:48:07;;;;;;;8.40;4.70;;;;;;;1.29;54.40;100765.27;107848;1258;72716;-67
2023/11/19 10:50:42;;;;;;;6.70;4.40;;;;;;;1.31;54.52;100759.00;107819;1259;61342;-68
2023/11/19 10:53:13;;;;;;;8.20;4.70;;;;;;;1.33;54.73;100756.84;107709;1258;61224;-70
2023/11/19 10:55:40;;;;;;;7.40;4.90;;;;;;;1.34;54.51;100758.86;107771;1259;72321;-68
2023/11/19 10:58:11;;;;;;;8.20;4.70;;;;;;;1.26;54.42;100757.38;107831;1258;72576;-67
2023/11/19 11:00:42;;;;;;;7.40;4.80;;;;;;;1.18;54.70;100752.55;107692;1259;74639;-67
2023/11/19 11:03:20;;;;;;;7.80;4.90;;;;;;;1.12;54.63;100747.17;107595;1261;61997;-68
2023/11/19 11:05:49;;;;;;;7.10;4.70;;;;;;;1.12;54.86;100738.61;107671;1259;61154;-68
2023/11/19 11:08:18;;;;;;;8.00;5.50;;;;;;;1.15;55.06;100732.05;107633;1259;75212;-69
2023/11/19 11:10:51;;;;;;;7.90;5.10;;;;;;;1.16;54.73;100726.67;107620;1259;71641;-67
2023/11/19 11:13:30;;;;;;;6.10;4.10;;;;;;;1.16;54.70;100729.34;107645;1259;71522;-66
2023/11/19 11:15:59;;;;;;;7.40;4.60;;;;;;;1.18;54.74;100730.25;107533;1259;61292;-66
2023/11/19 11:18:27;;;;;;;6.60;4.10;;;;;;;1.22;54.48;100728.58;107780;1259;61256;-68
2023/11/19 11:21:17;;;;;;;6.00;3.90;;;;;;;1.23;54.28;100728.30;107747;1259;75806;-67
2023/11/19 11:24:19;;;;;;;6.80;4.30;;;;;;;1.17;54.19;100727.89;107852;1259;72931;-66
2023/11/19 11:27:13;;;;;;;6.00;3.70;;;;;;;1.16;54.10;100721.73;107643;1259;71573;-67
2023/11/19 11:30:00;;;;;;;6.80;3.90;;;;;;;1.13;54.03;100714.71;107614;1258;61351;-67
2023/11/19 11:32:46;;;;;;;6.00;3.80;;;;;;;1.08;53.92;100714.27;107719;1259;61240;-68